Cedar Springs, Georgia
Current Conditions -  °F | °C
As of 2:50 PM on Thursday 30 Oct 2014 (Local Time) from KBIJ Reporting Station
Clear Clear  
Wind Chill: 72°   Ceiling: Unl
Heat Index: 72°   Visibility: 10mi
Dew Point: 43°   Wind: 8mph
Humidity: 35%   Direction: 310°NW
Pressure: 29.99"   Gusts: NA
Location:  31.18°N, 85.04°W
Report Text: KBIJ 301850Z AUTO 31007KT 10SM CLR 22/06 A2999 RMK AO2
Loading
Personal Weather Stations






























Interactive Weather Map
Tropical Storm Tracking
New forecast layout! Learn more

10-Day Weather Forecast

Advertisements
Track Severe Weather on mobile